CheckWX is a tool to help pilots better visualize weather data.  It is not intended as a substitute for an official pre-flight weather briefing.

22:08:35 UTC

EGAE METAR
City of Derry Airport
Derry, United Kingdom
Current

1 hour ago

EGAE 202050Z 20003KT 9999 FEW016 SCT044 15/13 Q1011
Observed
Jul-20 @ 20:50 UTC
Wind
  • 200° at 3 KTS
Visibility
10,000+ meters
Flight Rules
VFR
Cloud Levels
  • Few at 1,600' AGL
  • Scattered at 4,400' AGL
Temperature
15°C / 59°F
Dewpoint
13°C / 55°F
Humidity
88%
Altimeter
29.85" Hg
Pressure
1010.92 hPa
Previous

2 hours ago

EGAE 202020Z 25007KT 9999 FEW016 BKN044 15/13 Q1010
Observed
Jul-20 @ 20:20 UTC
Wind
  • 250° at 7 KTS
Visibility
10,000+ meters
Flight Rules
VFR
Cloud Levels
  • Few at 1,600' AGL
  • Broken at 4,400' AGL
Temperature
15°C / 59°F
Dewpoint
13°C / 55°F
Humidity
88%
Altimeter
29.82" Hg
Pressure
1009.92 hPa
Previous

2 hours ago

EGAE 201950Z 23007KT 9999 7000NW VCSH FEW016 SCT028 BKN047 15/13 Q1010
Observed
Jul-20 @ 19:50 UTC
Wind
  • 230° at 7 KTS
Visibility
10,000+ meters
Flight Rules
VFR
Cloud Levels
  • Few at 1,600' AGL
  • Scattered at 2,800' AGL
  • Broken at 4,700' AGL
Temperature
15°C / 59°F
Dewpoint
13°C / 55°F
Humidity
88%
Altimeter
29.82" Hg
Pressure
1009.92 hPa